Moretown, VT (05660)

1:32 PM EST on December 28, 2014 (GMT -0500)
Stevens Brook Road | Change Station
CLOSE
Current Station
Personal Weather Station
Location: Moretown, VT
Elevation: 680 ft
Nearby Weather Stations

Elev 680 ft 44.27 °N, 72.75 °W | Updated 2 minutes ago

Mostly Cloudy
Mostly Cloudy
38.9 °F
Feels Like 39 °F
N
1.0
Wind Variable Wind from SW
Gusts 6.0 mph

Today
High -- | Low -- °F
--% Chance of Precip.
Yesterday
High -- | Low -- °F
Precip. -- in
7:26 AM 4:19 PM
Waxing Crescent, 50% visible
Pressure 29.81 in
Visibility 10.0 miles
Clouds Scattered Clouds 2500 ft
Mostly Cloudy 3100 ft
Windchill 39 °F
Dew Point 33 °F
Humidity 80%
Rainfall 0.07 in
Snow Depth Not available.
UV 1 out of 12
Pollen .10 out of 12
Air Quality Not available.
Flu Activity Not available.
SPECI KMPV 281827Z AUTO 30004KT 10SM SCT025 BKN031 03/M01 A2981 RMK AO2 T00331011

More Conditions Fewer Conditions

Pressure 29.81 in
Visibility 10.0 miles
Clouds Scattered Clouds 2500 ft
Mostly Cloudy 3100 ft
Windchill 39 °F
Dew Point 33 °F
Humidity 80%
Rainfall 0.07 in
Snow Depth Not available.
UV 1 out of 12
Pollen .10 out of 12
Air Quality Not available.
Flu Activity Not available.
SPECI KMPV 281827Z AUTO 30004KT 10SM SCT025 BKN031 03/M01 A2981 RMK AO2 T00331011

More Conditions Fewer Conditions

10-Day Weather Forecast

Almanac

Astronomy

Dec. 28, 2014 Rise Set
Actual Time
Civil Twilight
Nautical Twilight
Astronomical Twilight
Moon
Length of Visible Light
Length of Day
Tomorrow will be .
, % of the Moon is Illuminated

Today's Extremes

State Highs State Lows

Community

WunderPhotos

Upload Photos

1,781,379 photos uploaded!

WunderBlogs® & News

Nearby

Air Quality

  Air Quality AQ Index Pollutant
Not available.

Snow Depth

Station Depth Elevation

Earthquake Activity

City Distance Mag. Time & Date
Minimum magnitude displayed is 2.5.

Coastal Water Temperatures

Place Temperature

Nearby Weather Stations